createdAt,value
2016-05-20T00:00:07.095Z,11.59
2016-05-20T00:01:07.082Z,11.52
2016-05-20T00:02:06.929Z,11.59
2016-05-20T00:03:06.759Z,11.63
2016-05-20T00:04:07.043Z,11.48
2016-05-20T00:05:07.030Z,11.48
2016-05-20T00:06:07.017Z,11.51
2016-05-20T00:07:07.004Z,11.48
2016-05-20T00:08:06.992Z,11.51
2016-05-20T00:09:06.681Z,11.48
2016-05-20T00:10:06.809Z,11.57
2016-05-20T00:11:06.953Z,11.5
2016-05-20T00:12:06.939Z,11.52
2016-05-20T00:13:06.911Z,11.51
2016-05-20T00:14:06.913Z,11.51
2016-05-20T00:15:06.901Z,11.55
2016-05-20T00:16:06.731Z,11.45
2016-05-20T00:17:06.859Z,11.51
2016-05-20T00:18:06.862Z,11.55
2016-05-20T00:19:06.849Z,11.51
2016-05-20T00:20:06.836Z,11.47
2016-05-20T00:21:06.824Z,11.4
2016-05-20T00:22:06.810Z,11.4
2016-05-20T00:23:06.797Z,11.44
2016-05-20T00:24:06.785Z,11.44
2016-05-20T00:25:06.755Z,11.45
2016-05-20T00:26:06.743Z,11.44
2016-05-20T00:27:06.745Z,11.47
2016-05-20T00:28:06.732Z,11.34
2016-05-20T00:29:06.720Z,11.36
2016-05-20T00:30:06.707Z,11.27
2016-05-20T00:31:06.694Z,11.29
2016-05-20T00:32:06.681Z,11.24
2016-05-20T00:33:06.496Z,11.21
2016-05-20T00:34:06.655Z,11.24
2016-05-20T00:35:06.627Z,11.26
2016-05-20T00:36:06.473Z,11.29
2016-05-20T00:37:06.601Z,11.3
2016-05-20T00:38:06.587Z,11.24
2016-05-20T00:39:06.356Z,11.29
2016-05-20T00:40:06.562Z,11.24
2016-05-20T00:41:06.548Z,11.19
2016-05-20T00:42:06.551Z,11.19
2016-05-20T00:43:06.522Z,11.15
2016-05-20T00:44:06.510Z,11.15
2016-05-20T00:45:06.498Z,11.12
2016-05-20T00:46:06.500Z,11.04
2016-05-20T00:47:06.471Z,11.03
2016-05-20T00:48:06.458Z,11.03
2016-05-20T00:49:06.445Z,11.07
2016-05-20T00:50:06.433Z,11.07
2016-05-20T00:51:06.419Z,11.01
2016-05-20T00:52:06.250Z,11.03
2016-05-20T00:53:06.238Z,10.97
2016-05-20T00:54:06.599Z,11.04
2016-05-20T00:55:06.211Z,11
2016-05-20T00:56:06.355Z,11
2016-05-20T00:57:06.185Z,10.97
2016-05-20T00:58:06.329Z,10.93
2016-05-20T00:59:06.160Z,10.96
2016-05-20T01:00:06.304Z,10.97
2016-05-20T01:01:06.118Z,10.97
2016-05-20T01:02:06.105Z,11.03
2016-05-20T01:03:06.249Z,11
2016-05-20T01:04:06.236Z,10.97
2016-05-20T01:05:06.238Z,10.9
2016-05-20T01:06:06.070Z,10.91
2016-05-20T01:07:06.259Z,10.85
2016-05-20T01:08:06.028Z,10.85
2016-05-20T01:09:05.874Z,10.9
2016-05-20T01:10:06.158Z,10.93
2016-05-20T01:11:06.145Z,10.94
2016-05-20T01:12:05.960Z,10.87
2016-05-20T01:13:06.103Z,10.91
2016-05-20T01:14:05.935Z,10.87
2016-05-20T01:15:06.077Z,10.83
2016-05-20T01:16:06.064Z,10.83
2016-05-20T01:17:06.052Z,10.85
2016-05-20T01:18:06.039Z,10.93
2016-05-20T01:19:06.026Z,10.93
2016-05-20T01:20:06.013Z,10.97
2016-05-20T01:21:05.844Z,10.97
2016-05-20T01:22:05.987Z,10.96
2016-05-20T01:23:05.818Z,11
2016-05-20T01:24:05.758Z,11
2016-05-20T01:25:05.791Z,10.96
2016-05-20T01:26:05.935Z,10.99
2016-05-20T01:27:05.766Z,10.93
2016-05-20T01:28:05.754Z,10.81
2016-05-20T01:29:05.741Z,10.82
2016-05-20T01:30:05.899Z,10.83
2016-05-20T01:31:05.871Z,10.89
2016-05-20T01:32:05.843Z,10.83
2016-05-20T01:33:05.845Z,10.93
2016-05-20T01:34:05.832Z,10.9
2016-05-20T01:35:05.819Z,10.76
2016-05-20T01:36:05.806Z,10.81
2016-05-20T01:37:05.481Z,10.82
2016-05-20T01:38:05.765Z,10.81
2016-05-20T01:39:05.501Z,10.79
2016-05-20T01:40:05.739Z,10.79
2016-05-20T01:41:05.725Z,10.81
2016-05-20T01:42:05.557Z,10.76
2016-05-20T01:43:05.545Z,10.71
2016-05-20T01:44:05.686Z,10.78
2016-05-20T01:45:05.518Z,10.89
2016-05-20T01:46:05.661Z,10.76
2016-05-20T01:47:05.648Z,10.82
2016-05-20T01:48:05.495Z,10.82
2016-05-20T01:49:05.622Z,10.81
2016-05-20T01:50:05.453Z,10.71
2016-05-20T01:51:05.596Z,10.82
2016-05-20T01:52:05.583Z,10.76
2016-05-20T01:53:05.571Z,10.83
2016-05-20T01:54:05.479Z,10.89
2016-05-20T01:55:05.544Z,10.75
2016-05-20T01:56:05.375Z,10.82
2016-05-20T01:57:05.519Z,10.81
2016-05-20T01:58:05.505Z,10.79
2016-05-20T01:59:05.477Z,10.71
2016-05-20T02:00:05.480Z,10.67
2016-05-20T02:01:05.452Z,10.69
2016-05-20T02:02:05.438Z,10.76
2016-05-20T02:03:05.426Z,10.79
2016-05-20T02:04:05.412Z,10.78
2016-05-20T02:05:05.415Z,10.78
2016-05-20T02:06:05.387Z,10.75
2016-05-20T02:07:05.373Z,10.69
2016-05-20T02:08:05.204Z,10.72
2016-05-20T02:09:05.535Z,10.74
2016-05-20T02:10:05.179Z,10.74
2016-05-20T02:11:05.323Z,10.75
2016-05-20T02:12:05.310Z,10.76
2016-05-20T02:13:05.312Z,10.76
2016-05-20T02:14:05.284Z,10.72
2016-05-20T02:15:05.270Z,10.67
2016-05-20T02:16:05.100Z,10.61
2016-05-20T02:17:05.261Z,10.74
2016-05-20T02:18:05.231Z,10.64
2016-05-20T02:19:05.219Z,10.66
2016-05-20T02:20:05.206Z,10.66
2016-05-20T02:21:05.192Z,10.72
2016-05-20T02:22:05.180Z,10.58
2016-05-20T02:23:05.010Z,10.54
2016-05-20T02:24:05.186Z,10.51
2016-05-20T02:25:05.157Z,10.53
2016-05-20T02:26:05.128Z,10.49
2016-05-20T02:27:05.116Z,10.56
2016-05-20T02:28:05.102Z,10.53
2016-05-20T02:29:05.089Z,10.47
2016-05-20T02:30:04.920Z,10.49
2016-05-20T02:31:05.063Z,10.51
2016-05-20T02:32:05.051Z,10.58
2016-05-20T02:33:05.037Z,10.54
2016-05-20T02:34:05.024Z,10.51
2016-05-20T02:35:05.011Z,10.49
2016-05-20T02:36:04.998Z,10.49
2016-05-20T02:37:05.095Z,10.47
2016-05-20T02:38:04.660Z,10.49
2016-05-20T02:39:05.023Z,10.47
2016-05-20T02:40:04.948Z,10.39
2016-05-20T02:41:04.778Z,10.39
2016-05-20T02:42:04.781Z,10.45
2016-05-20T02:43:04.862Z,10.39
2016-05-20T02:44:04.645Z,10.47
2016-05-20T02:45:04.929Z,10.38
2016-05-20T02:46:04.697Z,10.42
2016-05-20T02:47:04.841Z,10.38
2016-05-20T02:48:04.687Z,10.35
2016-05-20T02:49:04.815Z,10.41
2016-05-20T02:50:04.802Z,10.31
2016-05-20T02:51:04.773Z,10.2
2016-05-20T02:52:04.620Z,10.26
2016-05-20T02:53:04.748Z,10.32
2016-05-20T02:54:04.750Z,10.35
2016-05-20T02:55:04.738Z,10.31
2016-05-20T02:56:04.569Z,10.31
2016-05-20T02:57:04.555Z,10.35
2016-05-20T02:58:04.699Z,10.31
2016-05-20T02:59:04.669Z,10.17
2016-05-20T03:00:04.672Z,10.17
2016-05-20T03:01:04.504Z,10.23
2016-05-20T03:02:04.632Z,10.23
2016-05-20T03:03:04.619Z,10.19
2016-05-20T03:04:04.604Z,10.19
2016-05-20T03:05:04.593Z,10.14
2016-05-20T03:06:04.579Z,10.09
2016-05-20T03:07:04.410Z,10.17
2016-05-20T03:08:04.585Z,10.05
2016-05-20T03:09:04.540Z,10.09
2016-05-20T03:10:04.371Z,10.05
2016-05-20T03:11:04.515Z,10.01
2016-05-20T03:12:04.501Z,10.05
2016-05-20T03:13:04.473Z,9.96
2016-05-20T03:14:04.475Z,10.08
2016-05-20T03:15:04.291Z,10.04
2016-05-20T03:16:04.451Z,10.01
2016-05-20T03:17:04.437Z,10.13
2016-05-20T03:18:04.408Z,9.99
2016-05-20T03:19:04.396Z,10.01
2016-05-20T03:20:04.383Z,9.96
2016-05-20T03:21:04.369Z,9.99
2016-05-20T03:22:04.356Z,9.99
2016-05-20T03:23:04.344Z,10.01
2016-05-20T03:24:04.346Z,10.05
2016-05-20T03:25:04.318Z,10.01
2016-05-20T03:26:04.150Z,10.05
2016-05-20T03:27:04.291Z,10.05
2016-05-20T03:28:04.279Z,10.04
2016-05-20T03:29:04.266Z,10.04
2016-05-20T03:30:04.253Z,9.99
2016-05-20T03:31:04.225Z,9.96
2016-05-20T03:32:04.055Z,10.02
2016-05-20T03:33:04.215Z,9.99
2016-05-20T03:34:04.029Z,9.96
2016-05-20T03:35:04.173Z,10.02
2016-05-20T03:36:04.160Z,10.02
2016-05-20T03:37:04.146Z,9.9
2016-05-20T03:38:04.134Z,9.94
2016-05-20T03:39:04.121Z,9.86
2016-05-20T03:40:04.109Z,9.95
2016-05-20T03:41:04.095Z,9.88
2016-05-20T03:42:04.082Z,9.86
2016-05-20T03:43:04.085Z,9.88
2016-05-20T03:44:03.745Z,9.91
2016-05-20T03:45:04.028Z,9.96
2016-05-20T03:46:04.015Z,9.83
2016-05-20T03:47:04.002Z,9.84
2016-05-20T03:48:03.989Z,9.9
2016-05-20T03:49:03.819Z,9.86
2016-05-20T03:50:03.963Z,9.91
2016-05-20T03:51:03.966Z,9.87
2016-05-20T03:52:03.953Z,9.8
2016-05-20T03:53:03.925Z,9.95
2016-05-20T03:54:03.912Z,9.86
2016-05-20T03:55:04.070Z,9.81
2016-05-20T03:56:03.902Z,9.8
2016-05-20T03:57:03.873Z,9.91
2016-05-20T03:58:03.860Z,9.95
2016-05-20T03:59:03.831Z,9.98
2016-05-20T04:00:03.818Z,10.02
2016-05-20T04:01:03.805Z,10.06
2016-05-20T04:02:03.808Z,9.99
2016-05-20T04:03:03.796Z,10.01
2016-05-20T04:04:03.782Z,10.06
2016-05-20T04:05:03.754Z,10.16
2016-05-20T04:06:03.741Z,10.08
2016-05-20T04:07:03.728Z,10.23
2016-05-20T04:08:03.715Z,10.13
2016-05-20T04:09:03.701Z,10.16
2016-05-20T04:10:03.705Z,10.22
2016-05-20T04:11:03.676Z,10.31
2016-05-20T04:12:03.663Z,10.27
2016-05-20T04:13:03.650Z,10.35
2016-05-20T04:14:03.637Z,10.32
2016-05-20T04:15:03.624Z,10.35
2016-05-20T04:16:03.471Z,10.29
2016-05-20T04:17:03.599Z,10.31
2016-05-20T04:18:03.570Z,10.38
2016-05-20T04:19:03.573Z,10.38
2016-05-20T04:20:03.560Z,10.47
2016-05-20T04:21:03.547Z,10.44
2016-05-20T04:22:03.518Z,10.53
2016-05-20T04:23:03.520Z,10.54
2016-05-20T04:24:03.508Z,10.6
2016-05-20T04:25:03.355Z,10.67
2016-05-20T04:26:03.482Z,10.85
2016-05-20T04:27:03.469Z,10.81
2016-05-20T04:28:03.455Z,10.87
2016-05-20T04:29:03.443Z,10.99
2016-05-20T04:30:03.431Z,11.01
2016-05-20T04:31:03.402Z,11.14
2016-05-20T04:32:03.389Z,11.26
2016-05-20T04:33:03.376Z,11.34
2016-05-20T04:34:03.379Z,11.47
2016-05-20T04:35:03.350Z,11.54
2016-05-20T04:36:03.180Z,11.67
2016-05-20T04:37:03.324Z,11.57
2016-05-20T04:38:03.326Z,11.67
2016-05-20T04:39:03.314Z,11.83
2016-05-20T04:40:03.067Z,11.88
2016-05-20T04:41:03.273Z,12.01
2016-05-20T04:42:03.276Z,12.24
2016-05-20T04:43:03.278Z,12.49
2016-05-20T04:44:03.093Z,12.94
2016-05-20T04:45:03.080Z,13.04
2016-05-20T04:46:03.223Z,13.04
2016-05-20T04:47:03.054Z,12.93
2016-05-20T04:48:03.197Z,12.98
2016-05-20T04:49:03.184Z,13.01
2016-05-20T04:50:03.172Z,13.16
2016-05-20T04:51:03.158Z,13.35
2016-05-20T04:52:03.146Z,13.5
2016-05-20T04:53:03.133Z,13.6
2016-05-20T04:54:03.136Z,13.79
2016-05-20T04:55:03.357Z,13.92
2016-05-20T04:56:03.109Z,13.87
2016-05-20T04:57:03.096Z,13.72
2016-05-20T04:58:02.927Z,13.79
2016-05-20T04:59:03.086Z,14
2016-05-20T05:00:03.074Z,14.27
2016-05-20T05:01:03.060Z,14.23
2016-05-20T05:02:03.048Z,14.25
2016-05-20T05:03:03.034Z,14.25
2016-05-20T05:04:03.021Z,14.15
2016-05-20T05:05:03.009Z,14.14
2016-05-20T05:06:03.011Z,14.21
2016-05-20T05:07:02.999Z,14.17
2016-05-20T05:08:02.829Z,14.21
2016-05-20T05:09:02.988Z,14.12
2016-05-20T05:10:03.538Z,14.05
2016-05-20T05:11:02.946Z,14.02
2016-05-20T05:12:02.949Z,13.99
2016-05-20T05:13:02.936Z,13.97
2016-05-20T05:14:02.923Z,13.82
2016-05-20T05:15:02.926Z,13.93
2016-05-20T05:16:02.742Z,14.07
2016-05-20T05:17:02.745Z,14.12
2016-05-20T05:18:02.747Z,14.21
2016-05-20T05:19:02.875Z,14.11
2016-05-20T05:20:02.862Z,14.17
2016-05-20T05:21:02.849Z,14.1
2016-05-20T05:22:02.836Z,14.14
2016-05-20T05:23:02.666Z,14.05
2016-05-20T05:24:02.826Z,14.14
2016-05-20T05:25:02.812Z,14.1
2016-05-20T05:26:02.799Z,13.93
2016-05-20T05:27:02.802Z,13.87
2016-05-20T05:28:02.774Z,13.93
2016-05-20T05:29:02.605Z,13.97
2016-05-20T05:30:02.764Z,14
2016-05-20T05:31:02.750Z,14.05
2016-05-20T05:32:02.738Z,14.15
2016-05-20T05:33:02.725Z,14.11
2016-05-20T05:34:02.728Z,14.1
2016-05-20T05:35:02.714Z,14.12
2016-05-20T05:36:02.530Z,14.11
2016-05-20T05:37:02.688Z,14.15
2016-05-20T05:38:02.660Z,14.08
2016-05-20T05:39:02.647Z,14.17
2016-05-20T05:40:02.493Z,14.17
2016-05-20T05:41:02.638Z,14.15
2016-05-20T05:42:02.624Z,14.14
2016-05-20T05:43:02.610Z,14.27
2016-05-20T05:44:02.599Z,14.23
2016-05-20T05:45:02.600Z,14.27
2016-05-20T05:46:02.588Z,14.27
2016-05-20T05:47:02.575Z,14.27
2016-05-20T05:48:02.406Z,14.26
2016-05-20T05:49:02.548Z,14.25
2016-05-20T05:50:02.740Z,14.27
2016-05-20T05:51:02.539Z,14.33
2016-05-20T05:52:02.526Z,14.27
2016-05-20T05:53:02.356Z,14.19
2016-05-20T05:54:02.500Z,14.17
2016-05-20T05:55:02.722Z,14.27
2016-05-20T05:56:02.489Z,14.21
2016-05-20T05:57:02.462Z,14.14
2016-05-20T05:58:02.464Z,14.15
2016-05-20T05:59:02.464Z,14.32
2016-05-20T06:00:02.324Z,14.32
2016-05-20T06:01:02.371Z,14.32
2016-05-20T06:02:02.559Z,14.4
2016-05-20T06:03:02.435Z,14.5
2016-05-20T06:04:02.629Z,14.55
2016-05-20T06:05:02.617Z,14.52
2016-05-20T06:06:02.620Z,14.62
2016-05-20T06:07:02.639Z,14.7
2016-05-20T06:08:02.642Z,14.66
2016-05-20T06:09:02.486Z,14.72
2016-05-20T06:10:03.057Z,14.68
2016-05-20T06:11:02.487Z,14.77
2016-05-20T06:12:02.465Z,14.91
2016-05-20T06:13:02.613Z,14.92
2016-05-20T06:14:02.605Z,15
2016-05-20T06:15:02.610Z,14.91
2016-05-20T06:16:02.598Z,14.82
2016-05-20T06:17:02.587Z,14.75
2016-05-20T06:18:02.420Z,14.86
2016-05-20T06:19:02.582Z,14.92
2016-05-20T06:20:02.568Z,15.03
2016-05-20T06:21:02.557Z,15
2016-05-20T06:22:02.388Z,15.01
2016-05-20T06:23:02.533Z,15.04
2016-05-20T06:24:02.521Z,15.09
2016-05-20T06:25:03.132Z,15.13
2016-05-20T06:26:02.355Z,15.24
2016-05-20T06:27:02.358Z,15.19
2016-05-20T06:28:02.486Z,15.31
2016-05-20T06:29:02.504Z,15.28
2016-05-20T06:30:02.475Z,15.26
2016-05-20T06:31:02.322Z,15.37
2016-05-20T06:32:02.450Z,15.36
2016-05-20T06:33:02.453Z,15.28
2016-05-20T06:34:02.424Z,15.34
2016-05-20T06:35:02.098Z,15.4
2016-05-20T06:36:02.242Z,15.34
2016-05-20T06:37:02.401Z,15.42
2016-05-20T06:38:02.231Z,15.55
2016-05-20T06:39:02.375Z,15.64
2016-05-20T06:40:02.362Z,15.67
2016-05-20T06:41:02.364Z,15.62
2016-05-20T06:42:02.351Z,15.75
2016-05-20T06:43:02.339Z,15.73
2016-05-20T06:44:02.326Z,15.71
2016-05-20T06:45:02.313Z,15.79
2016-05-20T06:46:02.315Z,15.8
2016-05-20T06:47:02.318Z,15.95
2016-05-20T06:48:02.290Z,15.87
2016-05-20T06:49:02.120Z,15.98
2016-05-20T06:50:02.263Z,15.91
2016-05-20T06:51:02.266Z,15.99
2016-05-20T06:52:02.254Z,16.08
2016-05-20T06:53:02.240Z,16.13
2016-05-20T06:54:02.228Z,16.35
2016-05-20T06:55:02.027Z,16.38
2016-05-20T06:56:02.218Z,16.5
2016-05-20T06:57:02.204Z,16.61
2016-05-20T06:58:02.207Z,16.86
2016-05-20T06:59:02.023Z,16.86
2016-05-20T07:01:02.168Z,17.06
2016-05-20T07:02:02.171Z,17.04
2016-05-20T07:03:02.158Z,16.98
2016-05-20T07:04:02.005Z,17.05
2016-05-20T07:05:01.991Z,17.23
2016-05-20T07:06:02.135Z,17.36
2016-05-20T07:07:02.122Z,17.39
2016-05-20T07:08:02.125Z,17.67
2016-05-20T07:09:02.127Z,17.77
2016-05-20T07:10:02.083Z,17.86
2016-05-20T07:11:02.117Z,17.95
2016-05-20T07:12:02.089Z,18.12
2016-05-20T07:13:02.091Z,18.27
2016-05-20T07:14:01.922Z,18.14
2016-05-20T07:15:02.066Z,18.12
2016-05-20T07:16:02.069Z,18.08
2016-05-20T07:17:02.071Z,18.05
2016-05-20T07:18:02.058Z,18
2016-05-20T07:19:02.061Z,17.95
2016-05-20T07:20:02.048Z,17.9
2016-05-20T07:21:02.034Z,17.72
2016-05-20T07:22:02.021Z,17.7
2016-05-20T07:23:02.009Z,17.7
2016-05-20T07:24:02.012Z,17.68
2016-05-20T07:25:02.311Z,17.64
2016-05-20T07:26:02.001Z,17.55
2016-05-20T07:27:01.832Z,17.63
2016-05-20T07:28:01.976Z,17.55
2016-05-20T07:29:01.978Z,17.41
2016-05-20T07:30:01.965Z,17.36
2016-05-20T07:31:01.953Z,17.23
2016-05-20T07:32:01.956Z,17.23
2016-05-20T07:33:01.942Z,17
2016-05-20T07:34:01.945Z,17.04
2016-05-20T07:35:01.776Z,16.98
2016-05-20T07:36:01.762Z,17.08
2016-05-20T07:37:01.905Z,17.05
2016-05-20T07:38:01.908Z,17.01
2016-05-20T07:39:01.895Z,17
2016-05-20T07:40:01.945Z,17.08
2016-05-20T07:41:01.885Z,17.04
2016-05-20T07:42:01.716Z,17.04
2016-05-20T07:43:01.860Z,17.04
2016-05-20T07:44:01.863Z,17.06
2016-05-20T07:45:01.849Z,17.14
2016-05-20T07:46:01.836Z,17.23
2016-05-20T07:47:01.839Z,17.21
2016-05-20T07:48:01.826Z,17.15
2016-05-20T07:49:01.813Z,17.16
2016-05-20T07:50:01.800Z,17.16
2016-05-20T07:51:01.803Z,17.08
2016-05-20T07:52:01.806Z,17
2016-05-20T07:53:01.792Z,17.14
2016-05-20T07:54:01.779Z,17.27
2016-05-20T07:55:02.204Z,17.16
2016-05-20T07:56:01.613Z,17.26
2016-05-20T07:57:01.756Z,17.24
2016-05-20T07:58:01.743Z,17.14
2016-05-20T07:59:01.746Z,17.12
2016-05-20T08:00:02.702Z,17.04
2016-05-20T08:01:01.751Z,17
2016-05-20T08:02:01.551Z,17.01
2016-05-20T08:03:01.710Z,17.06
2016-05-20T08:04:01.697Z,17.04
2016-05-20T08:05:01.684Z,16.96
2016-05-20T08:06:01.672Z,17
2016-05-20T08:07:01.658Z,17.15
2016-05-20T08:08:01.505Z,17.19
2016-05-20T08:09:01.836Z,17.16
2016-05-20T08:10:01.745Z,17.14
2016-05-20T08:11:02.263Z,16.97
2016-05-20T08:12:01.625Z,16.97
2016-05-20T08:13:01.612Z,17.05
2016-05-20T08:14:01.599Z,17.01
2016-05-20T08:15:01.602Z,16.98
2016-05-20T08:16:01.589Z,16.98
2016-05-20T08:17:01.452Z,16.93
2016-05-20T08:18:01.579Z,17
2016-05-20T08:19:01.566Z,17
2016-05-20T08:20:05.334Z,16.98
2016-05-20T08:21:04.055Z,16.86
2016-05-20T08:22:01.543Z,16.97
2016-05-20T08:23:05.092Z,16.96
2016-05-20T08:24:01.532Z,16.98
2016-05-20T08:25:04.269Z,17
2016-05-20T08:26:01.866Z,16.98
2016-05-20T08:27:01.509Z,17.05
2016-05-20T08:28:01.340Z,17
2016-05-20T08:29:01.483Z,17
2016-05-20T08:30:01.157Z,16.98
2016-05-20T08:31:01.457Z,16.97
2016-05-20T08:32:01.444Z,17.08
2016-05-20T08:33:01.448Z,17.16
2016-05-20T08:34:01.278Z,17.18
2016-05-20T08:35:07.156Z,17.21
2016-05-20T08:36:01.423Z,17.18
2016-05-20T08:37:01.411Z,17.18
2016-05-20T08:38:01.414Z,17.36
2016-05-20T08:39:01.385Z,17.37
2016-05-20T08:40:01.263Z,17.49
2016-05-20T08:41:01.375Z,17.77
2016-05-20T08:42:01.362Z,17.86
2016-05-20T08:43:01.209Z,17.85
2016-05-20T08:44:01.352Z,17.79
2016-05-20T08:45:01.338Z,17.82
2016-05-20T08:46:01.841Z,18
2016-05-20T08:47:01.344Z,17.9
2016-05-20T08:48:01.316Z,18
2016-05-20T08:49:01.319Z,17.97
2016-05-20T08:50:01.305Z,17.89
2016-05-20T08:51:01.152Z,17.82
2016-05-20T08:52:01.296Z,17.8
2016-05-20T08:53:01.282Z,17.82
2016-05-20T08:54:01.285Z,17.85
2016-05-20T08:55:01.459Z,17.87
2016-05-20T08:56:01.260Z,17.85
2016-05-20T08:57:01.262Z,17.79
2016-05-20T08:58:01.248Z,17.82
2016-05-20T08:59:01.252Z,17.95
2016-05-20T09:00:01.238Z,18.14
2016-05-20T09:01:01.226Z,17.97
2016-05-20T09:02:01.118Z,18.1
2016-05-20T09:03:01.215Z,18.3
2016-05-20T09:04:01.203Z,18.26
2016-05-20T09:05:01.237Z,18.38
2016-05-20T09:06:01.583Z,18.53
2016-05-20T09:07:01.194Z,18.65
2016-05-20T09:08:01.167Z,18.71
2016-05-20T09:09:01.653Z,18.81
2016-05-20T09:10:01.047Z,19.06
2016-05-20T09:11:01.159Z,19.34
2016-05-20T09:12:01.145Z,19.61
2016-05-20T09:13:00.992Z,19.74
2016-05-20T09:14:01.151Z,19.81
2016-05-20T09:15:01.122Z,19.84
2016-05-20T09:16:01.125Z,19.99
2016-05-20T09:17:00.988Z,19.87
2016-05-20T09:18:01.116Z,20.03
2016-05-20T09:19:01.119Z,20.25
2016-05-20T09:20:01.105Z,20.43
2016-05-20T09:21:01.108Z,20.65
2016-05-20T09:22:01.172Z,20.6
2016-05-20T09:23:01.113Z,20.32
2016-05-20T09:24:00.944Z,20.63
2016-05-20T09:25:01.102Z,20.88
2016-05-20T09:26:01.090Z,20.98
2016-05-20T09:27:00.935Z,20.95
2016-05-20T09:28:01.080Z,21.21
2016-05-20T09:29:01.082Z,21.21
2016-05-20T09:30:01.085Z,21.36
2016-05-20T09:31:01.104Z,21.7
2016-05-20T09:32:00.918Z,21.8
2016-05-20T09:33:01.093Z,21.75
2016-05-20T09:34:03.096Z,22.21
2016-05-20T09:35:00.957Z,22.08
2016-05-20T09:36:00.929Z,22.24
2016-05-20T09:37:01.072Z,22.35
2016-05-20T09:38:01.090Z,22.5
2016-05-20T09:39:00.922Z,22.73
2016-05-20T09:40:01.924Z,22.42
2016-05-20T09:41:01.083Z,22.44
2016-05-20T09:42:00.898Z,22.53
2016-05-20T09:43:00.901Z,22.95
2016-05-20T09:44:01.061Z,23
2016-05-20T09:45:01.063Z,22.81
2016-05-20T09:46:00.909Z,22.76
2016-05-20T09:47:01.068Z,22.95
2016-05-20T09:48:00.914Z,23.34
2016-05-20T09:49:01.058Z,22.95
2016-05-20T09:50:00.905Z,22.7
2016-05-20T09:51:01.079Z,22.73
2016-05-20T09:52:00.910Z,22.69
2016-05-20T09:53:01.069Z,22.63
2016-05-20T09:54:01.071Z,22.54
2016-05-20T09:55:01.402Z,22.18
2016-05-20T09:56:01.060Z,22.23
2016-05-20T09:57:01.064Z,22.44
2016-05-20T09:58:01.066Z,22.05
2016-05-20T09:59:00.928Z,22.07
2016-05-20T10:00:01.056Z,21.6
2016-05-20T10:01:01.059Z,21.54
2016-05-20T10:02:01.046Z,21.73
2016-05-20T10:03:01.049Z,21.54
2016-05-20T10:04:01.051Z,21.62
2016-05-20T10:05:00.898Z,21.75
2016-05-20T10:06:01.041Z,21.92
2016-05-20T10:07:01.044Z,21.85
2016-05-20T10:08:01.031Z,21.61
2016-05-20T10:09:01.034Z,21.54
2016-05-20T10:10:00.739Z,21.67
2016-05-20T10:11:01.039Z,21.6
2016-05-20T10:12:01.042Z,21.75
2016-05-20T10:13:01.028Z,21.83
2016-05-20T10:14:01.031Z,22.01
2016-05-20T10:15:01.050Z,21.92
2016-05-20T10:16:01.021Z,22.13
2016-05-20T10:17:01.039Z,22.4
2016-05-20T10:18:01.011Z,22.29
2016-05-20T10:19:00.857Z,22.01
2016-05-20T10:20:01.016Z,21.96
2016-05-20T10:21:00.894Z,21.89
2016-05-20T10:22:01.005Z,21.96
2016-05-20T10:23:01.024Z,22.02
2016-05-20T10:24:00.855Z,22.01
2016-05-20T10:25:01.874Z,22.11
2016-05-20T10:26:01.001Z,22.28
2016-05-20T10:27:00.988Z,21.93
2016-05-20T10:28:00.990Z,21.91
2016-05-20T10:29:01.009Z,21.77
2016-05-20T10:30:01.012Z,21.91
2016-05-20T10:31:00.983Z,22.02
2016-05-20T10:32:01.001Z,22.28
2016-05-20T10:33:00.832Z,22.18
2016-05-20T10:34:00.976Z,22.14
2016-05-20T10:35:01.026Z,22.03
2016-05-20T10:36:00.981Z,21.89
2016-05-20T10:37:01.078Z,21.83
2016-05-20T10:38:01.065Z,22.05
2016-05-20T10:39:00.958Z,22.11
2016-05-20T10:40:01.429Z,21.91
2016-05-20T10:41:00.964Z,21.99
2016-05-20T10:42:00.966Z,21.92
2016-05-20T10:43:00.954Z,21.77
2016-05-20T10:44:00.799Z,21.92
2016-05-20T10:45:00.943Z,21.91
2016-05-20T10:46:00.962Z,22.03
2016-05-20T10:47:01.058Z,21.82
2016-05-20T10:48:00.936Z,21.93
2016-05-20T10:49:00.939Z,22.13
2016-05-20T10:50:00.784Z,22.21
2016-05-20T10:51:00.771Z,22.08
2016-05-20T10:52:00.884Z,21.86
2016-05-20T10:53:00.917Z,21.58
2016-05-20T10:54:00.920Z,21.3
2016-05-20T10:55:01.157Z,21.2
2016-05-20T10:56:01.050Z,21.27
2016-05-20T10:57:00.913Z,21.28
2016-05-20T10:58:00.916Z,21.36
2016-05-20T10:59:00.903Z,21.43
2016-05-20T11:00:00.889Z,21.49
2016-05-20T11:01:00.892Z,21.4
2016-05-20T11:02:00.738Z,21.14
2016-05-20T11:03:00.944Z,20.82
2016-05-20T11:04:00.901Z,21.09
2016-05-20T11:05:00.887Z,21.18
2016-05-20T11:06:00.874Z,21
2016-05-20T11:07:00.721Z,21.09
2016-05-20T11:08:00.770Z,21.39
2016-05-20T11:09:00.851Z,21.51
2016-05-20T11:10:03.370Z,21.76
2016-05-20T11:11:00.873Z,21.82
2016-05-20T11:12:00.844Z,21.86
2016-05-20T11:13:00.846Z,22.05
2016-05-20T11:14:00.848Z,22.36
2016-05-20T11:15:00.836Z,22.53
2016-05-20T11:16:00.683Z,22.69
2016-05-20T11:17:00.842Z,22.81
2016-05-20T11:18:00.703Z,22.62
2016-05-20T11:19:00.659Z,22.58
2016-05-20T11:20:00.928Z,22.6
2016-05-20T11:21:00.852Z,22.48
2016-05-20T11:22:00.808Z,22.73
2016-05-20T11:23:00.810Z,22.87
2016-05-20T11:24:00.813Z,23.08
2016-05-20T11:25:00.707Z,23.03
2016-05-20T11:26:00.647Z,22.97
2016-05-20T11:27:00.962Z,23.31
2016-05-20T11:28:00.871Z,23.76
2016-05-20T11:29:00.905Z,23.76
2016-05-20T11:30:00.783Z,23.81
2016-05-20T11:31:00.786Z,23.53
2016-05-20T11:32:00.866Z,23.4
2016-05-20T11:33:00.791Z,23.21
2016-05-20T11:34:00.793Z,23.16
2016-05-20T11:35:00.796Z,23.1
2016-05-20T11:36:00.783Z,22.93
2016-05-20T11:37:00.785Z,22.97
2016-05-20T11:38:00.788Z,22.93
2016-05-20T11:39:00.775Z,23.25
2016-05-20T11:40:00.809Z,23.47
2016-05-20T11:41:00.781Z,23.58
2016-05-20T11:42:00.768Z,23.15
2016-05-20T11:43:00.770Z,22.99
2016-05-20T11:44:00.774Z,23.23
2016-05-20T11:45:00.761Z,23.24
2016-05-20T11:46:00.763Z,23.06
2016-05-20T11:47:00.766Z,23.16
2016-05-20T11:48:00.753Z,23.03
2016-05-20T11:49:00.756Z,22.91
2016-05-20T11:50:00.758Z,22.75
2016-05-20T11:51:00.746Z,22.66
2016-05-20T11:52:00.747Z,22.48
2016-05-20T11:53:00.750Z,22.28
2016-05-20T11:54:00.738Z,22.23
2016-05-20T11:55:01.334Z,22.24
2016-05-20T11:56:00.572Z,22.05
2016-05-20T11:57:00.730Z,22.21
2016-05-20T11:58:00.733Z,22.32
2016-05-20T11:59:00.564Z,22.31
2016-05-20T12:00:00.738Z,22.24
2016-05-20T12:01:00.725Z,22.28
2016-05-20T12:02:00.713Z,22.39
2016-05-20T12:03:00.715Z,22.55
2016-05-20T12:04:00.718Z,22.81
2016-05-20T12:05:00.783Z,22.99
2016-05-20T12:06:00.738Z,22.83
2016-05-20T12:07:00.695Z,22.73
2016-05-20T12:08:00.697Z,22.75
2016-05-20T12:09:00.701Z,22.94
2016-05-20T12:10:00.703Z,22.87
2016-05-20T12:11:00.534Z,23.02
2016-05-20T12:12:00.537Z,23
2016-05-20T12:13:01.790Z,22.95
2016-05-20T12:14:00.698Z,23.27
2016-05-20T12:15:00.575Z,23.2
2016-05-20T12:16:00.672Z,23.53
2016-05-20T12:17:00.722Z,23.76
2016-05-20T12:18:00.818Z,23.66
2016-05-20T12:19:00.680Z,23.47
2016-05-20T12:20:00.683Z,23.47
2016-05-20T12:21:00.669Z,23.69
2016-05-20T12:22:00.672Z,23.44
2016-05-20T12:23:00.675Z,23.39
2016-05-20T12:24:00.569Z,23.09
2016-05-20T12:25:00.853Z,22.81
2016-05-20T12:26:00.667Z,22.69
2016-05-20T12:27:00.670Z,22.66
2016-05-20T12:28:00.689Z,22.62
2016-05-20T12:29:00.738Z,22.53
2016-05-20T12:30:00.522Z,22.42
2016-05-20T12:31:00.666Z,22.26
2016-05-20T12:32:00.652Z,22.42
2016-05-20T12:33:00.483Z,22.23
2016-05-20T12:34:00.658Z,22.24
2016-05-20T12:35:00.646Z,22.2
2016-05-20T12:36:00.648Z,22.02
2016-05-20T12:37:00.635Z,22.11
2016-05-20T12:38:00.621Z,22.26
2016-05-20T12:39:00.641Z,22.24
2016-05-20T12:40:01.627Z,21.99
2016-05-20T12:41:00.848Z,22.03
2016-05-20T12:42:00.618Z,22.05
2016-05-20T12:43:00.620Z,22.2
2016-05-20T12:44:00.607Z,22.1
2016-05-20T12:45:00.593Z,22.18
2016-05-20T12:46:00.596Z,22.14
2016-05-20T12:47:00.302Z,21.93
2016-05-20T12:48:00.586Z,22.17
2016-05-20T12:49:00.448Z,22.38
2016-05-20T12:50:00.576Z,22.54
2016-05-20T12:51:00.579Z,22.6
2016-05-20T12:52:00.581Z,22.65
2016-05-20T12:53:00.569Z,22.7
2016-05-20T12:54:00.572Z,22.75
2016-05-20T12:55:01.012Z,22.66
2016-05-20T12:56:00.560Z,22.47
2016-05-20T12:57:00.407Z,22.68
2016-05-20T12:58:00.551Z,22.88